sensor_id;sensor_type;location;lat;lon;timestamp;pressure;altitude;pressure_sealevel;temperature;humidity
19128;BME280;9696;53.686;10.094;2022-08-19T00:01:58;101043.47;;;18.31;88.63
19128;BME280;9696;53.686;10.094;2022-08-19T00:04:29;101041.59;;;18.40;88.44
19128;BME280;9696;53.686;10.094;2022-08-19T00:07:03;101033.75;;;18.47;87.82
19128;BME280;9696;53.686;10.094;2022-08-19T00:09:33;101031.91;;;18.55;88.04
19128;BME280;9696;53.686;10.094;2022-08-19T00:12:02;101032.38;;;18.51;87.67
19128;BME280;9696;53.686;10.094;2022-08-19T00:14:31;101017.44;;;18.50;87.83
19128;BME280;9696;53.686;10.094;2022-08-19T00:17:01;101007.78;;;18.57;87.48
19128;BME280;9696;53.686;10.094;2022-08-19T00:19:31;101002.97;;;18.60;87.92
19128;BME280;9696;53.686;10.094;2022-08-19T00:22:02;100989.47;;;18.62;87.26
19128;BME280;9696;53.686;10.094;2022-08-19T00:24:31;100996.28;;;18.64;87.00
19128;BME280;9696;53.686;10.094;2022-08-19T00:27:02;101008.97;;;18.54;87.33
19128;BME280;9696;53.686;10.094;2022-08-19T00:29:51;101002.84;;;18.54;87.68
19128;BME280;9696;53.686;10.094;2022-08-19T00:32:21;101003.97;;;18.59;87.46
19128;BME280;9696;53.686;10.094;2022-08-19T00:34:51;100998.13;;;18.64;87.04
19128;BME280;9696;53.686;10.094;2022-08-19T00:37:23;100998.75;;;18.66;86.74
19128;BME280;9696;53.686;10.094;2022-08-19T00:39:54;101003.44;;;18.64;86.92
19128;BME280;9696;53.686;10.094;2022-08-19T00:42:23;100998.28;;;18.62;87.70
19128;BME280;9696;53.686;10.094;2022-08-19T00:44:56;100992.53;;;18.51;88.14
19128;BME280;9696;53.686;10.094;2022-08-19T00:47:25;100988.75;;;18.45;88.77
19128;BME280;9696;53.686;10.094;2022-08-19T00:49:57;100993.03;;;18.54;88.20
19128;BME280;9696;53.686;10.094;2022-08-19T00:52:31;101003.88;;;18.45;89.01
19128;BME280;9696;53.686;10.094;2022-08-19T00:55:02;100986.38;;;18.50;88.57
19128;BME280;9696;53.686;10.094;2022-08-19T00:57:36;100988.72;;;18.53;89.21
19128;BME280;9696;53.686;10.094;2022-08-19T01:00:09;100986.25;;;18.52;88.74
19128;BME280;9696;53.686;10.094;2022-08-19T01:02:40;100979.41;;;18.49;89.41
19128;BME280;9696;53.686;10.094;2022-08-19T01:05:13;100986.06;;;18.53;89.50
19128;BME280;9696;53.686;10.094;2022-08-19T01:07:44;100983.44;;;18.45;90.03
19128;BME280;9696;53.686;10.094;2022-08-19T01:10:17;100995.72;;;18.46;89.80
19128;BME280;9696;53.686;10.094;2022-08-19T01:12:47;100986.44;;;18.42;90.15
19128;BME280;9696;53.686;10.094;2022-08-19T01:15:20;100986.81;;;18.39;90.98
19128;BME280;9696;53.686;10.094;2022-08-19T01:17:50;100981.13;;;18.42;89.95
19128;BME280;9696;53.686;10.094;2022-08-19T01:20:22;100981.66;;;18.37;90.01
19128;BME280;9696;53.686;10.094;2022-08-19T01:22:55;100979.72;;;18.31;90.59
19128;BME280;9696;53.686;10.094;2022-08-19T01:25:28;100981.66;;;18.37;90.29
19128;BME280;9696;53.686;10.094;2022-08-19T01:27:58;100976.13;;;18.24;91.39
19128;BME280;9696;53.686;10.094;2022-08-19T01:30:38;100967.28;;;18.32;91.43
19128;BME280;9696;53.686;10.094;2022-08-19T01:33:17;100971.44;;;18.26;91.09
19128;BME280;9696;53.686;10.094;2022-08-19T01:35:47;100969.09;;;18.31;91.04
19128;BME280;9696;53.686;10.094;2022-08-19T01:38:24;100979.78;;;18.23;92.08
19128;BME280;9696;53.686;10.094;2022-08-19T01:40:53;100969.47;;;18.28;91.73
19128;BME280;9696;53.686;10.094;2022-08-19T01:43:22;100968.63;;;18.28;91.23
19128;BME280;9696;53.686;10.094;2022-08-19T01:45:51;100958.47;;;18.31;91.08
19128;BME280;9696;53.686;10.094;2022-08-19T01:48:21;100969.16;;;18.23;91.67
19128;BME280;9696;53.686;10.094;2022-08-19T01:50:51;100963.47;;;18.26;91.34
19128;BME280;9696;53.686;10.094;2022-08-19T01:53:21;100964.25;;;18.35;91.37
19128;BME280;9696;53.686;10.094;2022-08-19T01:55:57;100962.19;;;18.22;91.99
19128;BME280;9696;53.686;10.094;2022-08-19T01:58:29;100946.31;;;18.14;92.00
19128;BME280;9696;53.686;10.094;2022-08-19T02:01:00;100949.31;;;18.11;93.05
19128;BME280;9696;53.686;10.094;2022-08-19T02:03:29;100955.00;;;18.08;92.74
19128;BME280;9696;53.686;10.094;2022-08-19T02:05:59;100957.13;;;18.13;92.93
19128;BME280;9696;53.686;10.094;2022-08-19T02:08:33;100945.00;;;18.10;92.51
19128;BME280;9696;53.686;10.094;2022-08-19T02:11:04;100956.09;;;18.14;92.50
19128;BME280;9696;53.686;10.094;2022-08-19T02:13:34;100964.84;;;18.22;92.19
19128;BME280;9696;53.686;10.094;2022-08-19T02:16:04;100967.53;;;18.14;92.67
19128;BME280;9696;53.686;10.094;2022-08-19T02:18:33;100969.22;;;18.15;92.32
19128;BME280;9696;53.686;10.094;2022-08-19T02:21:03;100955.56;;;18.18;91.99
19128;BME280;9696;53.686;10.094;2022-08-19T02:23:34;100944.38;;;18.08;92.58
19128;BME280;9696;53.686;10.094;2022-08-19T02:26:03;100946.41;;;17.98;93.50
19128;BME280;9696;53.686;10.094;2022-08-19T02:28:32;100940.78;;;18.01;93.29
19128;BME280;9696;53.686;10.094;2022-08-19T02:31:01;100937.69;;;17.89;94.07
19128;BME280;9696;53.686;10.094;2022-08-19T02:33:30;100931.56;;;17.89;93.98
19128;BME280;9696;53.686;10.094;2022-08-19T02:36:02;100932.53;;;17.88;94.36
19128;BME280;9696;53.686;10.094;2022-08-19T02:38:32;100938.69;;;17.88;94.35
19128;BME280;9696;53.686;10.094;2022-08-19T02:41:07;100935.72;;;17.83;95.02
19128;BME280;9696;53.686;10.094;2022-08-19T02:43:38;100930.41;;;17.83;94.11
19128;BME280;9696;53.686;10.094;2022-08-19T02:46:30;100945.97;;;17.86;94.21
19128;BME280;9696;53.686;10.094;2022-08-19T02:49:02;100956.16;;;17.75;94.69
19128;BME280;9696;53.686;10.094;2022-08-19T02:51:34;100962.47;;;17.74;95.86
19128;BME280;9696;53.686;10.094;2022-08-19T02:54:05;100961.91;;;17.86;94.62
19128;BME280;9696;53.686;10.094;2022-08-19T02:56:37;100946.66;;;17.88;94.49
19128;BME280;9696;53.686;10.094;2022-08-19T02:59:07;100937.28;;;18.01;93.70
19128;BME280;9696;53.686;10.094;2022-08-19T03:01:40;100939.63;;;17.96;94.58
19128;BME280;9696;53.686;10.094;2022-08-19T03:04:12;100938.69;;;17.88;93.95
19128;BME280;9696;53.686;10.094;2022-08-19T03:06:44;100943.84;;;17.82;94.75
19128;BME280;9696;53.686;10.094;2022-08-19T03:09:14;100942.72;;;17.76;95.25
19128;BME280;9696;53.686;10.094;2022-08-19T03:11:45;100949.34;;;17.80;95.11
19128;BME280;9696;53.686;10.094;2022-08-19T03:14:19;100950.84;;;17.75;95.19
19128;BME280;9696;53.686;10.094;2022-08-19T03:16:51;100950.84;;;17.75;94.43
19128;BME280;9696;53.686;10.094;2022-08-19T03:19:20;100948.66;;;17.78;94.29
19128;BME280;9696;53.686;10.094;2022-08-19T03:21:50;100946.84;;;17.79;94.39
19128;BME280;9696;53.686;10.094;2022-08-19T03:24:20;100952.00;;;17.80;93.78
19128;BME280;9696;53.686;10.094;2022-08-19T03:26:53;100945.50;;;17.83;93.26
19128;BME280;9696;53.686;10.094;2022-08-19T03:29:26;100940.38;;;17.81;94.23
19128;BME280;9696;53.686;10.094;2022-08-19T03:31:58;100940.91;;;17.77;93.85
19128;BME280;9696;53.686;10.094;2022-08-19T03:34:33;100939.75;;;17.71;94.15
19128;BME280;9696;53.686;10.094;2022-08-19T03:37:05;100944.38;;;17.77;94.04
19128;BME280;9696;53.686;10.094;2022-08-19T03:39:36;100951.31;;;17.78;93.91
19128;BME280;9696;53.686;10.094;2022-08-19T03:42:07;100957.16;;;17.74;94.36
19128;BME280;9696;53.686;10.094;2022-08-19T03:44:57;100959.44;;;17.85;93.78
19128;BME280;9696;53.686;10.094;2022-08-19T03:47:26;100970.06;;;17.85;92.83
19128;BME280;9696;53.686;10.094;2022-08-19T03:49:55;100975.69;;;17.82;93.52
19128;BME280;9696;53.686;10.094;2022-08-19T03:52:24;100975.69;;;17.82;94.12
19128;BME280;9696;53.686;10.094;2022-08-19T03:54:53;100979.59;;;17.94;93.40
19128;BME280;9696;53.686;10.094;2022-08-19T03:57:24;100981.78;;;17.90;92.92
19128;BME280;9696;53.686;10.094;2022-08-19T03:59:59;100986.31;;;17.82;93.25
19128;BME280;9696;53.686;10.094;2022-08-19T04:02:41;100989.13;;;17.88;93.25
19128;BME280;9696;53.686;10.094;2022-08-19T04:05:28;101000.09;;;17.85;93.68
19128;BME280;9696;53.686;10.094;2022-08-19T04:07:57;101005.19;;;17.87;93.59
19128;BME280;9696;53.686;10.094;2022-08-19T04:10:27;101009.72;;;17.78;94.62
19128;BME280;9696;53.686;10.094;2022-08-19T04:12:58;101007.88;;;17.79;94.88
19128;BME280;9696;53.686;10.094;2022-08-19T04:15:27;101001.69;;;17.95;93.92
19128;BME280;9696;53.686;10.094;2022-08-19T04:18:01;101004.84;;;17.90;93.46
19128;BME280;9696;53.686;10.094;2022-08-19T04:20:30;101005.84;;;17.97;93.75
19128;BME280;9696;53.686;10.094;2022-08-19T04:22:59;101002.16;;;17.98;93.13
19128;BME280;9696;53.686;10.094;2022-08-19T04:25:28;101009.78;;;18.01;92.96
19128;BME280;9696;53.686;10.094;2022-08-19T04:27:59;101013.13;;;17.95;93.12
19128;BME280;9696;53.686;10.094;2022-08-19T04:30:28;101011.63;;;18.01;93.22
19128;BME280;9696;53.686;10.094;2022-08-19T04:32:57;101008.59;;;18.04;93.17
19128;BME280;9696;53.686;10.094;2022-08-19T04:35:26;101014.75;;;18.04;92.57
19128;BME280;9696;53.686;10.094;2022-08-19T04:37:55;101009.41;;;18.12;92.34
19128;BME280;9696;53.686;10.094;2022-08-19T04:40:24;101009.91;;;18.08;92.68
19128;BME280;9696;53.686;10.094;2022-08-19T04:43:12;101016.22;;;18.07;91.99
19128;BME280;9696;53.686;10.094;2022-08-19T04:45:43;101018.56;;;18.02;92.66
19128;BME280;9696;53.686;10.094;2022-08-19T04:48:13;101017.75;;;18.01;92.72
19128;BME280;9696;53.686;10.094;2022-08-19T04:50:55;101020.41;;;18.01;92.52
19128;BME280;9696;53.686;10.094;2022-08-19T04:53:26;101014.91;;;18.03;92.99
19128;BME280;9696;53.686;10.094;2022-08-19T04:56:06;101024.69;;;18.02;92.49
19128;BME280;9696;53.686;10.094;2022-08-19T04:58:38;101024.66;;;18.10;92.15
19128;BME280;9696;53.686;10.094;2022-08-19T05:01:11;101031.31;;;18.06;92.63
19128;BME280;9696;53.686;10.094;2022-08-19T05:03:40;101027.66;;;18.07;92.54
19128;BME280;9696;53.686;10.094;2022-08-19T05:06:12;101024.84;;;18.09;92.14
19128;BME280;9696;53.686;10.094;2022-08-19T05:08:43;101022.25;;;18.01;92.26
19128;BME280;9696;53.686;10.094;2022-08-19T05:11:15;101027.19;;;18.04;91.86
19128;BME280;9696;53.686;10.094;2022-08-19T05:13:47;101030.84;;;18.03;92.48
19128;BME280;9696;53.686;10.094;2022-08-19T05:16:18;101039.13;;;18.08;91.80
19128;BME280;9696;53.686;10.094;2022-08-19T05:18:48;101035.47;;;18.09;91.84
19128;BME280;9696;53.686;10.094;2022-08-19T05:21:36;101039.47;;;18.05;91.93
19128;BME280;9696;53.686;10.094;2022-08-19T05:24:25;101038.16;;;18.01;92.15
19128;BME280;9696;53.686;10.094;2022-08-19T05:26:57;101041.25;;;18.12;91.58
19128;BME280;9696;53.686;10.094;2022-08-19T05:29:28;101035.94;;;18.12;91.38
19128;BME280;9696;53.686;10.094;2022-08-19T05:32:04;101046.81;;;18.25;91.13
19128;BME280;9696;53.686;10.094;2022-08-19T05:34:37;101041.63;;;18.09;92.03
19128;BME280;9696;53.686;10.094;2022-08-19T05:37:07;101049.59;;;18.09;91.78
19128;BME280;9696;53.686;10.094;2022-08-19T05:39:38;101039.47;;;18.05;91.63
19128;BME280;9696;53.686;10.094;2022-08-19T05:42:10;101051.84;;;18.20;91.02
19128;BME280;9696;53.686;10.094;2022-08-19T05:44:44;101043.72;;;18.14;92.15
19128;BME280;9696;53.686;10.094;2022-08-19T05:47:14;101046.44;;;17.98;92.54
19128;BME280;9696;53.686;10.094;2022-08-19T05:49:44;101031.59;;;18.19;91.46
19128;BME280;9696;53.686;10.094;2022-08-19T05:52:15;101027.97;;;18.12;92.07
19128;BME280;9696;53.686;10.094;2022-08-19T05:54:46;101025.56;;;18.25;91.25
19128;BME280;9696;53.686;10.094;2022-08-19T05:57:19;101029.69;;;18.05;92.30
19128;BME280;9696;53.686;10.094;2022-08-19T05:59:50;101029.13;;;18.10;92.47
19128;BME280;9696;53.686;10.094;2022-08-19T06:02:26;101026.47;;;18.10;92.52
19128;BME280;9696;53.686;10.094;2022-08-19T06:04:55;101025.19;;;18.06;92.80
19128;BME280;9696;53.686;10.094;2022-08-19T06:07:25;101031.38;;;17.90;93.47
19128;BME280;9696;53.686;10.094;2022-08-19T06:09:54;101036.97;;;18.03;93.08
19128;BME280;9696;53.686;10.094;2022-08-19T06:12:28;101035.31;;;18.02;92.70
19128;BME280;9696;53.686;10.094;2022-08-19T06:15:02;101037.78;;;18.12;92.02
19128;BME280;9696;53.686;10.094;2022-08-19T06:17:32;101029.00;;;18.03;92.92
19128;BME280;9696;53.686;10.094;2022-08-19T06:20:04;101035.59;;;18.15;91.98
19128;BME280;9696;53.686;10.094;2022-08-19T06:22:38;101031.22;;;18.22;92.02
19128;BME280;9696;53.686;10.094;2022-08-19T06:25:08;101030.88;;;18.25;91.69
19128;BME280;9696;53.686;10.094;2022-08-19T06:27:38;101037.03;;;18.26;90.99
19128;BME280;9696;53.686;10.094;2022-08-19T06:30:29;101041.50;;;18.25;91.49
19128;BME280;9696;53.686;10.094;2022-08-19T06:32:58;101051.44;;;18.31;91.29
19128;BME280;9696;53.686;10.094;2022-08-19T06:35:28;101041.66;;;18.32;90.51
19128;BME280;9696;53.686;10.094;2022-08-19T06:37:57;101044.94;;;18.34;90.75
19128;BME280;9696;53.686;10.094;2022-08-19T06:40:27;101038.06;;;18.48;90.60
19128;BME280;9696;53.686;10.094;2022-08-19T06:42:56;101034.47;;;18.41;90.20
19128;BME280;9696;53.686;10.094;2022-08-19T06:45:31;101033.72;;;18.55;89.03
19128;BME280;9696;53.686;10.094;2022-08-19T06:48:03;101031.47;;;18.66;88.55
19128;BME280;9696;53.686;10.094;2022-08-19T06:50:32;101028.59;;;18.45;89.88
19128;BME280;9696;53.686;10.094;2022-08-19T06:53:03;101027.50;;;18.62;88.61
19128;BME280;9696;53.686;10.094;2022-08-19T06:55:33;101030.72;;;18.50;89.45
19128;BME280;9696;53.686;10.094;2022-08-19T06:58:03;101036.53;;;18.53;89.80
19128;BME280;9696;53.686;10.094;2022-08-19T07:00:34;101033.44;;;18.42;90.89
19128;BME280;9696;53.686;10.094;2022-08-19T07:03:04;101038.69;;;18.50;90.37
19128;BME280;9696;53.686;10.094;2022-08-19T07:05:40;101034.56;;;18.47;89.86
19128;BME280;9696;53.686;10.094;2022-08-19T07:08:13;101036.53;;;18.53;89.62
19128;BME280;9696;53.686;10.094;2022-08-19T07:10:43;101040.88;;;18.54;89.83
19128;BME280;9696;53.686;10.094;2022-08-19T07:13:13;101041.63;;;18.63;89.37
19128;BME280;9696;53.686;10.094;2022-08-19T07:15:44;101056.06;;;18.68;88.63
19128;BME280;9696;53.686;10.094;2022-08-19T07:18:14;101035.75;;;18.53;89.30
19128;BME280;9696;53.686;10.094;2022-08-19T07:20:43;101035.19;;;18.57;89.67
19128;BME280;9696;53.686;10.094;2022-08-19T07:23:13;101040.34;;;18.51;90.51
19128;BME280;9696;53.686;10.094;2022-08-19T07:25:43;101037.84;;;18.57;89.31
19128;BME280;9696;53.686;10.094;2022-08-19T07:28:20;101026.72;;;18.76;88.92
19128;BME280;9696;53.686;10.094;2022-08-19T07:30:53;101041.50;;;18.79;88.30
19128;BME280;9696;53.686;10.094;2022-08-19T07:33:22;101049.13;;;18.59;89.29
19128;BME280;9696;53.686;10.094;2022-08-19T07:35:54;101054.03;;;18.70;88.96
19128;BME280;9696;53.686;10.094;2022-08-19T07:38:23;101062.59;;;18.50;89.49
19128;BME280;9696;53.686;10.094;2022-08-19T07:40:53;101063.78;;;18.55;88.97
19128;BME280;9696;53.686;10.094;2022-08-19T07:43:23;101063.72;;;18.63;89.44
19128;BME280;9696;53.686;10.094;2022-08-19T07:46:03;101068.78;;;18.73;88.42
19128;BME280;9696;53.686;10.094;2022-08-19T07:48:32;101067.97;;;18.95;87.47
19128;BME280;9696;53.686;10.094;2022-08-19T07:51:04;101059.81;;;18.74;88.60
19128;BME280;9696;53.686;10.094;2022-08-19T07:53:37;101067.56;;;18.83;88.14
19128;BME280;9696;53.686;10.094;2022-08-19T07:56:07;101061.81;;;18.95;87.58
19128;BME280;9696;53.686;10.094;2022-08-19T07:58:39;101075.63;;;19.13;87.85
19128;BME280;9696;53.686;10.094;2022-08-19T08:01:14;101066.66;;;19.28;86.39
19128;BME280;9696;53.686;10.094;2022-08-19T08:03:45;101072.69;;;19.45;85.59
19128;BME280;9696;53.686;10.094;2022-08-19T08:06:40;101072.19;;;19.04;86.90
19128;BME280;9696;53.686;10.094;2022-08-19T08:09:31;101073.19;;;19.26;86.39
19128;BME280;9696;53.686;10.094;2022-08-19T08:12:03;101085.56;;;19.34;86.04
19128;BME280;9696;53.686;10.094;2022-08-19T08:14:55;101090.06;;;19.33;86.47
19128;BME280;9696;53.686;10.094;2022-08-19T08:17:28;101094.91;;;19.15;86.87
19128;BME280;9696;53.686;10.094;2022-08-19T08:20:19;101096.69;;;19.00;87.75
19128;BME280;9696;53.686;10.094;2022-08-19T08:22:48;101100.88;;;18.94;88.11
19128;BME280;9696;53.686;10.094;2022-08-19T08:25:36;101100.94;;;18.86;88.51
19128;BME280;9696;53.686;10.094;2022-08-19T08:28:05;101102.19;;;18.75;88.96
19128;BME280;9696;53.686;10.094;2022-08-19T08:30:45;101110.94;;;18.84;88.96
19128;BME280;9696;53.686;10.094;2022-08-19T08:33:20;101104.25;;;18.88;88.88
19128;BME280;9696;53.686;10.094;2022-08-19T08:36:02;101105.56;;;18.92;89.06
19128;BME280;9696;53.686;10.094;2022-08-19T08:38:31;101111.72;;;18.62;90.39
19128;BME280;9696;53.686;10.094;2022-08-19T08:41:16;101106.16;;;18.79;89.18
19128;BME280;9696;53.686;10.094;2022-08-19T08:43:49;101113.81;;;18.97;88.90
19128;BME280;9696;53.686;10.094;2022-08-19T08:46:24;101112.44;;;19.01;88.88
19128;BME280;9696;53.686;10.094;2022-08-19T08:49:04;101106.88;;;18.96;89.06
19128;BME280;9696;53.686;10.094;2022-08-19T08:51:41;101115.56;;;19.05;88.68
19128;BME280;9696;53.686;10.094;2022-08-19T08:54:20;101108.44;;;19.05;88.66
19128;BME280;9696;53.686;10.094;2022-08-19T08:56:53;101111.63;;;19.01;88.47
19128;BME280;9696;53.686;10.094;2022-08-19T08:59:28;101104.41;;;19.09;88.38
19128;BME280;9696;53.686;10.094;2022-08-19T09:01:59;101119.91;;;19.06;88.17
19128;BME280;9696;53.686;10.094;2022-08-19T09:04:30;101104.19;;;19.19;88.14
19128;BME280;9696;53.686;10.094;2022-08-19T09:07:16;101105.25;;;19.10;87.77
19128;BME280;9696;53.686;10.094;2022-08-19T09:10:10;101113.06;;;19.11;87.66
19128;BME280;9696;53.686;10.094;2022-08-19T09:12:53;101110.59;;;19.24;87.50
19128;BME280;9696;53.686;10.094;2022-08-19T09:15:29;101108.53;;;19.35;87.55
19128;BME280;9696;53.686;10.094;2022-08-19T09:18:04;101110.94;;;19.44;86.50
19128;BME280;9696;53.686;10.094;2022-08-19T09:20:35;101111.44;;;19.25;86.43
19128;BME280;9696;53.686;10.094;2022-08-19T09:23:09;101112.56;;;19.30;86.84
19128;BME280;9696;53.686;10.094;2022-08-19T09:25:39;101109.06;;;19.30;86.52
19128;BME280;9696;53.686;10.094;2022-08-19T09:28:08;101121.81;;;19.35;87.06
19128;BME280;9696;53.686;10.094;2022-08-19T09:30:52;101115.44;;;19.21;87.41
19128;BME280;9696;53.686;10.094;2022-08-19T09:33:22;101124.56;;;19.26;87.23
19128;BME280;9696;53.686;10.094;2022-08-19T09:36:03;101120.22;;;19.25;87.22
19128;BME280;9696;53.686;10.094;2022-08-19T09:38:36;101115.81;;;19.18;87.79
19128;BME280;9696;53.686;10.094;2022-08-19T09:41:13;101114.22;;;19.32;87.85
19128;BME280;9696;53.686;10.094;2022-08-19T09:43:45;101112.97;;;19.42;87.30
19128;BME280;9696;53.686;10.094;2022-08-19T09:46:15;101110.97;;;19.36;86.27
19128;BME280;9696;53.686;10.094;2022-08-19T09:48:46;101110.53;;;19.33;86.11
19128;BME280;9696;53.686;10.094;2022-08-19T09:51:20;101105.28;;;19.76;84.43
19128;BME280;9696;53.686;10.094;2022-08-19T09:53:51;101108.16;;;19.90;83.56
19128;BME280;9696;53.686;10.094;2022-08-19T09:56:22;101104.75;;;20.10;83.34
19128;BME280;9696;53.686;10.094;2022-08-19T09:58:52;101107.88;;;20.14;82.23
19128;BME280;9696;53.686;10.094;2022-08-19T10:01:22;101098.28;;;20.49;80.10
19128;BME280;9696;53.686;10.094;2022-08-19T10:03:54;101105.94;;;20.22;81.35
19128;BME280;9696;53.686;10.094;2022-08-19T10:06:27;101102.16;;;20.32;81.43
19128;BME280;9696;53.686;10.094;2022-08-19T10:09:15;101106.00;;;20.44;80.28
19128;BME280;9696;53.686;10.094;2022-08-19T10:12:00;101097.66;;;20.32;80.69
19128;BME280;9696;53.686;10.094;2022-08-19T10:14:30;101101.53;;;20.30;81.00
19128;BME280;9696;53.686;10.094;2022-08-19T10:17:02;101093.25;;;20.60;80.21
19128;BME280;9696;53.686;10.094;2022-08-19T10:19:49;101108.53;;;20.52;79.72
19128;BME280;9696;53.686;10.094;2022-08-19T10:22:24;101108.75;;;20.72;79.03
19128;BME280;9696;53.686;10.094;2022-08-19T10:24:53;101114.47;;;20.68;79.13
19128;BME280;9696;53.686;10.094;2022-08-19T10:27:23;101106.06;;;20.50;80.00
19128;BME280;9696;53.686;10.094;2022-08-19T10:29:53;101111.16;;;20.66;79.96
19128;BME280;9696;53.686;10.094;2022-08-19T10:32:25;101109.78;;;20.70;79.30
19128;BME280;9696;53.686;10.094;2022-08-19T10:35:02;101109.34;;;20.88;79.69
19128;BME280;9696;53.686;10.094;2022-08-19T10:37:36;101101.91;;;20.84;78.53
19128;BME280;9696;53.686;10.094;2022-08-19T10:40:24;101111.25;;;20.73;79.19
19128;BME280;9696;53.686;10.094;2022-08-19T10:42:54;101104.94;;;21.02;77.70
19128;BME280;9696;53.686;10.094;2022-08-19T10:45:24;101104.38;;;21.06;77.71
19128;BME280;9696;53.686;10.094;2022-08-19T10:47:55;101101.78;;;20.70;78.34
19128;BME280;9696;53.686;10.094;2022-08-19T10:50:25;101102.03;;;20.76;78.81
19128;BME280;9696;53.686;10.094;2022-08-19T10:53:13;101109.59;;;20.72;79.51
19128;BME280;9696;53.686;10.094;2022-08-19T10:55:45;101102.81;;;20.69;79.02
19128;BME280;9696;53.686;10.094;2022-08-19T10:58:31;101099.41;;;20.82;78.71
19128;BME280;9696;53.686;10.094;2022-08-19T11:01:01;101083.94;;;20.50;79.61
19128;BME280;9696;53.686;10.094;2022-08-19T11:03:30;101096.66;;;20.54;80.63
19128;BME280;9696;53.686;10.094;2022-08-19T11:06:00;101097.00;;;20.45;79.36
19128;BME280;9696;53.686;10.094;2022-08-19T11:08:31;101099.81;;;20.58;79.19
19128;BME280;9696;53.686;10.094;2022-08-19T11:11:01;101094.09;;;20.61;79.09
19128;BME280;9696;53.686;10.094;2022-08-19T11:13:35;101098.03;;;20.65;78.91
19128;BME280;9696;53.686;10.094;2022-08-19T11:16:08;101097.16;;;20.58;79.36
19128;BME280;9696;53.686;10.094;2022-08-19T11:18:38;101092.72;;;20.50;79.83
19128;BME280;9696;53.686;10.094;2022-08-19T11:21:09;101098.28;;;20.49;79.32
19128;BME280;9696;53.686;10.094;2022-08-19T11:23:41;101099.13;;;20.35;80.71
19128;BME280;9696;53.686;10.094;2022-08-19T11:26:11;101101.66;;;20.43;80.06
19128;BME280;9696;53.686;10.094;2022-08-19T11:28:40;101108.47;;;20.45;79.82
19128;BME280;9696;53.686;10.094;2022-08-19T11:31:11;101109.75;;;20.49;79.68
19128;BME280;9696;53.686;10.094;2022-08-19T11:33:40;101104.03;;;20.52;80.19
19128;BME280;9696;53.686;10.094;2022-08-19T11:36:15;101103.81;;;20.68;78.54
19128;BME280;9696;53.686;10.094;2022-08-19T11:38:47;101104.25;;;20.72;78.02
19128;BME280;9696;53.686;10.094;2022-08-19T11:41:19;101104.91;;;20.95;78.15
19128;BME280;9696;53.686;10.094;2022-08-19T11:43:56;101106.59;;;21.03;77.85
19128;BME280;9696;53.686;10.094;2022-08-19T11:46:26;101103.84;;;20.90;77.37
19128;BME280;9696;53.686;10.094;2022-08-19T11:48:58;101087.34;;;21.07;77.89
19128;BME280;9696;53.686;10.094;2022-08-19T11:51:28;101092.25;;;21.04;77.56
19128;BME280;9696;53.686;10.094;2022-08-19T11:53:59;101091.66;;;21.30;76.43
19128;BME280;9696;53.686;10.094;2022-08-19T11:56:29;101087.72;;;21.53;75.96
19128;BME280;9696;53.686;10.094;2022-08-19T11:59:00;101085.19;;;21.39;75.99
19128;BME280;9696;53.686;10.094;2022-08-19T12:01:29;101081.28;;;21.41;75.76
19128;BME280;9696;53.686;10.094;2022-08-19T12:03:59;101093.75;;;21.34;75.47
19128;BME280;9696;53.686;10.094;2022-08-19T12:06:30;101094.44;;;21.43;75.18
19128;BME280;9696;53.686;10.094;2022-08-19T12:09:06;101098.84;;;21.57;75.04
19128;BME280;9696;53.686;10.094;2022-08-19T12:11:36;101085.53;;;21.91;73.45
19128;BME280;9696;53.686;10.094;2022-08-19T12:14:06;101088.22;;;21.91;73.90
19128;BME280;9696;53.686;10.094;2022-08-19T12:16:43;101085.13;;;21.60;73.67
19128;BME280;9696;53.686;10.094;2022-08-19T12:19:19;101092.41;;;21.73;73.77
19128;BME280;9696;53.686;10.094;2022-08-19T12:21:50;101101.75;;;21.62;75.61
19128;BME280;9696;53.686;10.094;2022-08-19T12:24:22;101096.34;;;21.49;75.13
19128;BME280;9696;53.686;10.094;2022-08-19T12:26:52;101099.63;;;21.51;75.89
19128;BME280;9696;53.686;10.094;2022-08-19T12:29:28;101094.75;;;21.61;75.54
19128;BME280;9696;53.686;10.094;2022-08-19T12:31:58;101098.09;;;21.35;76.24
19128;BME280;9696;53.686;10.094;2022-08-19T12:34:32;101093.53;;;21.29;76.34
19128;BME280;9696;53.686;10.094;2022-08-19T12:37:03;101089.88;;;21.92;74.07
19128;BME280;9696;53.686;10.094;2022-08-19T12:39:40;101090.94;;;21.70;75.19
19128;BME280;9696;53.686;10.094;2022-08-19T12:42:10;101096.69;;;21.74;74.81
19128;BME280;9696;53.686;10.094;2022-08-19T12:44:42;101088.06;;;22.06;73.89
19128;BME280;9696;53.686;10.094;2022-08-19T12:47:12;101076.63;;;22.19;73.14
19128;BME280;9696;53.686;10.094;2022-08-19T12:49:43;101079.53;;;21.89;73.48
19128;BME280;9696;53.686;10.094;2022-08-19T12:52:23;101080.31;;;22.24;72.16
19128;BME280;9696;53.686;10.094;2022-08-19T12:54:57;101085.78;;;21.96;72.90
19128;BME280;9696;53.686;10.094;2022-08-19T12:57:27;101086.13;;;22.28;71.34
19128;BME280;9696;53.686;10.094;2022-08-19T13:00:03;101081.38;;;22.23;73.33
19128;BME280;9696;53.686;10.094;2022-08-19T13:02:34;101084.06;;;22.30;72.01
19128;BME280;9696;53.686;10.094;2022-08-19T13:05:08;101082.41;;;22.29;72.63
19128;BME280;9696;53.686;10.094;2022-08-19T13:07:39;101075.75;;;22.72;70.51
19128;BME280;9696;53.686;10.094;2022-08-19T13:10:12;101077.94;;;22.42;71.60
19128;BME280;9696;53.686;10.094;2022-08-19T13:12:44;101081.69;;;22.68;70.06
19128;BME280;9696;53.686;10.094;2022-08-19T13:15:14;101081.25;;;22.64;71.21
19128;BME280;9696;53.686;10.094;2022-08-19T13:17:52;101077.34;;;22.53;70.58
19128;BME280;9696;53.686;10.094;2022-08-19T13:20:24;101066.81;;;22.39;69.50